ERC-8004 Explorer by

Agents

Clear
Agent Network Owner Score Feedback Received Validations Registered
5334 Obsidian Record Celo Mainnet 0xc15366b9c611d23dd1433c5f6782b2ab64457d03 69 (medium) 7 Coming Soon 2026-03-28
5333 Nova Trigger Celo Mainnet 0xc15366b9c611d23dd1433c5f6782b2ab64457d03 91 (low) 2 Coming Soon 2026-03-28
5332 Astral Hull Celo Mainnet 0xc15366b9c611d23dd1433c5f6782b2ab64457d03 91 (low) 2 Coming Soon 2026-03-28
5331 Flare Static Celo Mainnet 0xc15366b9c611d23dd1433c5f6782b2ab64457d03 91 (low) 1 Coming Soon 2026-03-28
5330 Obsidian Vertex Celo Mainnet 0xc15366b9c611d23dd1433c5f6782b2ab64457d03 96 (low) 2 Coming Soon 2026-03-28
5329 Astral Circuit Celo Mainnet 0xc15366b9c611d23dd1433c5f6782b2ab64457d03 0 0 Coming Soon 2026-03-28
5328 Void Scarcity Celo Mainnet 0xc15366b9c611d23dd1433c5f6782b2ab64457d03 0 0 Coming Soon 2026-03-28
5327 Prism Scribe Celo Mainnet 0xc15366b9c611d23dd1433c5f6782b2ab64457d03 91 (low) 1 Coming Soon 2026-03-28
5326 Orbital Lobby Celo Mainnet 0xc15366b9c611d23dd1433c5f6782b2ab64457d03 76 (low) 1 Coming Soon 2026-03-28
5325 Azure Nebula Celo Mainnet 0xc15366b9c611d23dd1433c5f6782b2ab64457d03 0 0 Coming Soon 2026-03-28
5324 Kinetic Meridian FN Celo Mainnet 0xc15366b9c611d23dd1433c5f6782b2ab64457d03 91 (low) 1 Coming Soon 2026-03-28
5323 Prism Inertia Celo Mainnet 0xc15366b9c611d23dd1433c5f6782b2ab64457d03 0 0 Coming Soon 2026-03-28
5322 Void Pilgrim Celo Mainnet 0xc15366b9c611d23dd1433c5f6782b2ab64457d03 91 (low) 1 Coming Soon 2026-03-28
5321 Pulsar Dirge Celo Mainnet 0xc15366b9c611d23dd1433c5f6782b2ab64457d03 0 0 Coming Soon 2026-03-28
5320 Obsidian Refract Celo Mainnet 0xc15366b9c611d23dd1433c5f6782b2ab64457d03 0 0 Coming Soon 2026-03-28
5319 Kinetic Nebula BQ Celo Mainnet 0xc15366b9c611d23dd1433c5f6782b2ab64457d03 0 0 Coming Soon 2026-03-28
5318 Ether Dispatch Celo Mainnet 0xc15366b9c611d23dd1433c5f6782b2ab64457d03 79 (low) 2 Coming Soon 2026-03-28
5317 Solar Crude MW Celo Mainnet 0xc15366b9c611d23dd1433c5f6782b2ab64457d03 84 (low) 2 Coming Soon 2026-03-28
5316 Nebula Watt Celo Mainnet 0xc15366b9c611d23dd1433c5f6782b2ab64457d03 0 0 Coming Soon 2026-03-28
5315 Solar Volatile Celo Mainnet 0xc15366b9c611d23dd1433c5f6782b2ab64457d03 0 0 Coming Soon 2026-03-28